Bevent, Wisconsin
Current Conditions -  °F | °C
As of 8:50 AM on Sunday 21 Dec 2014 (Local Time) from KCWA Reporting Station
Haze Haze  
Wind Chill: -6°   Ceiling: 400
Heat Index: -2°   Visibility: 1.5mi
Dew Point: -2°   Wind: 8mph
Humidity: 100%   Direction: 130°SE
Pressure: 30.04"   Gusts: NA
Location:  44.8205°N, 89.392°W
Report Text: KCWA 211450Z 13007KT 1 1/2SM BR OVC004 M02/M02 A3004
Loading
Personal Weather Stations






























Interactive Weather Map New forecast layout! Learn more

10-Day Weather Forecast

Advertisements
Track Severe Weather on mobile